createdAt,value
2018-04-14T00:00:55.599Z,8.43
2018-04-14T00:03:23.906Z,8.43
2018-04-14T00:05:52.350Z,9.27
2018-04-14T00:08:20.747Z,9.90
2018-04-14T00:10:49.067Z,8.87
2018-04-14T00:13:17.378Z,9.00
2018-04-14T00:15:45.709Z,7.47
2018-04-14T00:18:14.028Z,8.27
2018-04-14T00:20:42.978Z,7.47
2018-04-14T00:23:11.310Z,7.80
2018-04-14T00:25:39.639Z,8.53
2018-04-14T00:28:08.004Z,8.27
2018-04-14T00:30:36.330Z,7.20
2018-04-14T00:33:04.690Z,8.97
2018-04-14T00:35:33.012Z,9.43
2018-04-14T00:38:01.351Z,8.93
2018-04-14T00:40:29.744Z,7.73
2018-04-14T00:42:58.059Z,8.57
2018-04-14T00:45:26.444Z,8.30
2018-04-14T00:47:54.765Z,8.10
2018-04-14T00:50:23.118Z,8.57
2018-04-14T00:52:51.464Z,9.00
2018-04-14T00:55:19.791Z,8.97
2018-04-14T00:57:48.113Z,8.73
2018-04-14T01:00:16.440Z,9.03
2018-04-14T01:02:44.805Z,9.23
2018-04-14T01:05:13.131Z,10.00
2018-04-14T01:07:41.573Z,9.67
2018-04-14T01:10:09.911Z,11.13
2018-04-14T01:12:38.253Z,10.17
2018-04-14T01:15:06.749Z,11.13
2018-04-14T01:17:35.100Z,10.67
2018-04-14T01:20:03.727Z,9.30
2018-04-14T01:22:32.127Z,8.73
2018-04-14T01:25:00.437Z,8.87
2018-04-14T01:27:28.771Z,10.47
2018-04-14T01:29:57.090Z,8.67
2018-04-14T01:32:25.490Z,9.80
2018-04-14T01:34:53.812Z,9.07
2018-04-14T01:37:22.156Z,9.53
2018-04-14T01:39:50.509Z,9.13
2018-04-14T01:42:18.842Z,9.73
2018-04-14T01:44:47.195Z,8.27
2018-04-14T01:47:15.532Z,10.50
2018-04-14T01:49:43.891Z,10.30
2018-04-14T01:52:12.234Z,10.87
2018-04-14T01:54:40.615Z,9.93
2018-04-14T01:57:08.963Z,10.23
2018-04-14T01:59:37.300Z,10.60
2018-04-14T02:02:05.692Z,9.70
2018-04-14T02:04:34.083Z,9.53
2018-04-14T02:07:02.412Z,10.13
2018-04-14T02:09:30.762Z,8.20
2018-04-14T02:11:59.102Z,9.03
2018-04-14T02:14:27.427Z,9.00
2018-04-14T02:16:56.111Z,6.80
2018-04-14T02:19:24.531Z,7.57
2018-04-14T02:21:52.842Z,7.53
2018-04-14T02:24:21.227Z,7.00
2018-04-14T02:26:49.565Z,8.53
2018-04-14T02:29:17.933Z,6.80
2018-04-14T02:31:46.279Z,6.53
2018-04-14T02:34:14.693Z,6.90
2018-04-14T02:36:43.024Z,7.40
2018-04-14T02:39:11.355Z,5.93
2018-04-14T02:41:39.692Z,6.70
2018-04-14T02:44:08.048Z,6.40
2018-04-14T02:46:36.439Z,6.70
2018-04-14T02:49:04.831Z,7.10
2018-04-14T02:51:33.169Z,6.57
2018-04-14T02:54:01.513Z,5.90
2018-04-14T02:56:29.850Z,6.77
2018-04-14T02:58:58.162Z,6.10
2018-04-14T03:01:26.495Z,6.57
2018-04-14T03:03:54.798Z,5.50
2018-04-14T03:06:23.196Z,7.07
2018-04-14T03:08:51.513Z,6.90
2018-04-14T03:11:19.972Z,6.40
2018-04-14T03:13:48.305Z,6.53
2018-04-14T03:16:16.609Z,5.20
2018-04-14T03:18:44.939Z,6.23
2018-04-14T03:21:13.270Z,5.80
2018-04-14T03:23:41.594Z,6.27
2018-04-14T03:26:09.985Z,7.07
2018-04-14T03:28:38.421Z,6.63
2018-04-14T03:31:06.751Z,5.53
2018-04-14T03:33:35.190Z,6.43
2018-04-14T03:36:03.593Z,6.50
2018-04-14T03:38:32.181Z,6.17
2018-04-14T03:41:00.523Z,5.13
2018-04-14T03:43:28.859Z,5.30
2018-04-14T03:45:57.191Z,5.10
2018-04-14T03:48:25.544Z,4.50
2018-04-14T03:50:53.857Z,4.00
2018-04-14T03:53:22.217Z,3.90
2018-04-14T03:55:50.620Z,4.07
2018-04-14T03:58:19.027Z,4.23
2018-04-14T04:00:47.362Z,4.80
2018-04-14T04:03:15.787Z,4.90
2018-04-14T04:05:44.161Z,5.30
2018-04-14T04:08:12.750Z,4.20
2018-04-14T04:10:41.075Z,4.37
2018-04-14T04:13:09.426Z,4.07
2018-04-14T04:15:37.887Z,4.90
2018-04-14T04:18:06.329Z,3.70
2018-04-14T04:20:51.558Z,3.80
2018-04-14T04:23:31.631Z,4.40
2018-04-14T04:26:00.928Z,4.33
2018-04-14T04:28:29.321Z,4.60
2018-04-14T04:30:57.709Z,3.53
2018-04-14T04:33:26.051Z,3.83
2018-04-14T04:35:54.731Z,3.77
2018-04-14T04:38:23.085Z,3.87
2018-04-14T04:40:51.420Z,4.37
2018-04-14T04:43:19.739Z,3.27
2018-04-14T04:48:34.072Z,2.93
2018-04-14T04:51:02.410Z,3.37
2018-04-14T04:53:30.717Z,3.23
2018-04-14T04:55:59.050Z,3.50
2018-04-14T04:58:27.455Z,3.07
2018-04-14T05:00:55.787Z,3.30
2018-04-14T05:03:24.110Z,3.63
2018-04-14T05:05:52.486Z,3.30
2018-04-14T05:08:20.799Z,3.20
2018-04-14T05:10:49.613Z,3.10
2018-04-14T05:13:18.093Z,3.40
2018-04-14T05:15:46.448Z,2.90
2018-04-14T05:18:14.844Z,2.87
2018-04-14T05:20:43.183Z,2.90
2018-04-14T05:23:11.511Z,2.80
2018-04-14T05:25:39.905Z,3.83
2018-04-14T05:28:08.224Z,3.47
2018-04-14T05:30:36.538Z,2.73
2018-04-14T05:33:04.888Z,2.57
2018-04-14T05:35:33.240Z,2.23
2018-04-14T05:38:01.561Z,1.97
2018-04-14T05:40:29.988Z,2.23
2018-04-14T05:42:58.353Z,1.90
2018-04-14T05:45:26.652Z,2.67
2018-04-14T05:47:55.019Z,2.40
2018-04-14T05:50:23.346Z,2.43
2018-04-14T05:52:51.710Z,2.37
2018-04-14T05:55:20.042Z,2.00
2018-04-14T05:57:48.400Z,2.03
2018-04-14T06:00:16.720Z,1.77
2018-04-14T06:02:45.056Z,2.17
2018-04-14T06:05:13.411Z,1.60
2018-04-14T06:07:41.853Z,2.40
2018-04-14T06:10:10.207Z,2.50
2018-04-14T06:12:38.523Z,1.53
2018-04-14T06:15:06.871Z,1.60
2018-04-14T06:17:35.221Z,1.73
2018-04-14T06:20:03.530Z,1.60
2018-04-14T06:22:31.966Z,2.50
2018-04-14T06:25:00.336Z,2.00
2018-04-14T06:27:28.681Z,1.80
2018-04-14T06:29:57.036Z,1.67
2018-04-14T06:32:25.411Z,1.33
2018-04-14T06:34:53.822Z,1.50
2018-04-14T06:37:22.219Z,1.50
2018-04-14T06:39:50.526Z,1.63
2018-04-14T06:42:18.885Z,1.27
2018-04-14T06:44:47.208Z,1.40
2018-04-14T06:47:15.537Z,1.37
2018-04-14T06:49:43.900Z,1.80
2018-04-14T06:52:12.224Z,1.30
2018-04-14T06:54:40.541Z,1.53
2018-04-14T06:57:08.937Z,1.40
2018-04-14T06:59:37.330Z,1.07
2018-04-14T07:02:05.687Z,1.17
2018-04-14T07:04:34.036Z,1.07
2018-04-14T07:07:02.417Z,1.20
2018-04-14T07:09:30.749Z,1.13
2018-04-14T07:11:59.090Z,1.37
2018-04-14T07:14:27.428Z,1.13
2018-04-14T07:16:56.232Z,1.00
2018-04-14T07:19:24.543Z,1.30
2018-04-14T07:21:52.870Z,1.23
2018-04-14T07:24:21.211Z,1.00
2018-04-14T07:26:49.601Z,1.07
2018-04-14T07:29:17.899Z,1.17
2018-04-14T07:31:46.249Z,1.40
2018-04-14T07:34:14.596Z,1.50
2018-04-14T07:36:42.958Z,1.80
2018-04-14T07:39:11.398Z,1.00
2018-04-14T07:41:39.745Z,1.57
2018-04-14T07:44:08.181Z,1.50
2018-04-14T07:46:36.531Z,1.30
2018-04-14T07:49:04.883Z,1.20
2018-04-14T07:51:33.271Z,1.27
2018-04-14T07:54:01.607Z,1.10
2018-04-14T07:56:29.956Z,0.97
2018-04-14T07:58:58.367Z,1.27
2018-04-14T08:01:26.688Z,1.20
2018-04-14T08:03:55.059Z,1.30
2018-04-14T08:06:23.442Z,1.20
2018-04-14T08:08:51.820Z,1.13
2018-04-14T08:11:20.169Z,1.13
2018-04-14T08:13:48.549Z,1.50
2018-04-14T08:16:16.910Z,1.10
2018-04-14T08:18:45.282Z,1.00
2018-04-14T08:21:13.622Z,1.30
2018-04-14T08:23:41.976Z,1.30
2018-04-14T08:26:10.308Z,1.60
2018-04-14T08:28:38.696Z,1.20
2018-04-14T08:31:07.064Z,2.10
2018-04-14T08:33:35.378Z,1.40
2018-04-14T08:36:03.722Z,1.53
2018-04-14T08:38:32.084Z,1.40
2018-04-14T08:41:00.740Z,1.47
2018-04-14T08:43:29.108Z,1.17
2018-04-14T08:45:57.529Z,1.43
2018-04-14T08:48:25.861Z,1.20
2018-04-14T08:50:54.326Z,1.57
2018-04-14T08:53:22.640Z,1.30
2018-04-14T08:55:51.060Z,1.33
2018-04-14T08:58:19.408Z,1.60
2018-04-14T09:00:47.740Z,1.33
2018-04-14T09:03:16.111Z,1.43
2018-04-14T09:05:44.584Z,1.67
2018-04-14T09:08:12.922Z,1.50
2018-04-14T09:10:41.267Z,1.77
2018-04-14T09:13:09.767Z,1.63
2018-04-14T09:15:38.088Z,1.67
2018-04-14T09:18:06.785Z,1.60
2018-04-14T09:20:35.134Z,1.60
2018-04-14T09:23:03.514Z,1.70
2018-04-14T09:25:31.888Z,1.83
2018-04-14T09:28:00.366Z,1.60
2018-04-14T09:30:28.729Z,2.20
2018-04-14T09:32:57.052Z,1.63
2018-04-14T09:35:25.448Z,2.00
2018-04-14T09:37:53.829Z,1.60
2018-04-14T09:40:22.237Z,1.70
2018-04-14T09:42:50.606Z,1.60
2018-04-14T09:45:19.068Z,1.40
2018-04-14T09:47:47.474Z,1.73
2018-04-14T09:50:15.806Z,1.60
2018-04-14T09:52:44.262Z,1.40
2018-04-14T09:55:12.992Z,1.30
2018-04-14T09:57:41.326Z,1.47
2018-04-14T10:00:09.649Z,1.40
2018-04-14T10:02:43.550Z,1.37
2018-04-14T10:05:11.905Z,1.33
2018-04-14T10:07:40.242Z,1.30
2018-04-14T10:10:08.604Z,1.27
2018-04-14T10:12:36.936Z,0.90
2018-04-14T10:15:05.268Z,1.13
2018-04-14T10:17:33.657Z,1.23
2018-04-14T10:20:01.998Z,1.40
2018-04-14T10:22:30.342Z,1.20
2018-04-14T10:24:58.676Z,1.40
2018-04-14T10:27:27.003Z,1.30
2018-04-14T10:29:55.337Z,1.30
2018-04-14T10:32:23.792Z,1.40
2018-04-14T10:34:52.143Z,1.60
2018-04-14T10:37:20.499Z,1.03
2018-04-14T10:39:48.834Z,1.27
2018-04-14T10:42:17.179Z,1.13
2018-04-14T10:44:45.520Z,1.40
2018-04-14T10:47:13.833Z,1.30
2018-04-14T10:49:42.274Z,1.10
2018-04-14T10:52:10.629Z,1.27
2018-04-14T10:54:38.988Z,1.13
2018-04-14T10:57:07.421Z,1.30
2018-04-14T10:59:35.763Z,1.43
2018-04-14T11:02:04.211Z,1.20
2018-04-14T11:04:32.552Z,1.53
2018-04-14T11:07:00.893Z,1.20
2018-04-14T11:09:29.289Z,1.50
2018-04-14T11:11:58.210Z,1.40
2018-04-14T11:14:26.589Z,1.33
2018-04-14T11:16:54.989Z,1.30
2018-04-14T11:19:23.409Z,1.37
2018-04-14T11:21:51.747Z,1.60
2018-04-14T11:24:20.179Z,1.30
2018-04-14T11:26:48.654Z,1.30
2018-04-14T11:29:17.044Z,1.43
2018-04-14T11:31:45.371Z,1.17
2018-04-14T11:34:14.526Z,1.33
2018-04-14T11:36:42.855Z,1.20
2018-04-14T11:39:11.166Z,1.23
2018-04-14T11:41:39.613Z,1.27
2018-04-14T11:44:07.949Z,1.10
2018-04-14T11:46:36.297Z,1.13
2018-04-14T11:49:04.683Z,0.90
2018-04-14T11:51:33.024Z,1.07
2018-04-14T11:54:01.367Z,0.80
2018-04-14T11:56:29.704Z,1.27
2018-04-14T11:58:58.032Z,1.30
2018-04-14T12:01:26.431Z,1.60
2018-04-14T12:03:54.843Z,1.00
2018-04-14T12:06:23.151Z,1.07
2018-04-14T12:08:51.474Z,1.00
2018-04-14T12:11:19.865Z,0.90
2018-04-14T12:13:48.302Z,1.73
2018-04-14T12:16:16.666Z,1.10
2018-04-14T12:18:44.989Z,1.10
2018-04-14T12:21:13.381Z,2.07
2018-04-14T12:23:41.696Z,1.00
2018-04-14T12:26:10.008Z,0.80
2018-04-14T12:28:38.359Z,1.00
2018-04-14T12:31:06.665Z,1.17
2018-04-14T12:33:35.002Z,0.93
2018-04-14T12:36:03.335Z,1.10
2018-04-14T12:38:31.661Z,1.73
2018-04-14T12:40:59.987Z,1.30
2018-04-14T12:43:28.329Z,1.30
2018-04-14T12:45:56.690Z,1.20
2018-04-14T12:48:25.022Z,1.00
2018-04-14T12:50:53.375Z,1.13
2018-04-14T12:53:21.726Z,1.10
2018-04-14T12:55:50.192Z,1.40
2018-04-14T12:58:18.530Z,1.33
2018-04-14T13:00:46.883Z,1.50
2018-04-14T13:03:15.208Z,1.83
2018-04-14T13:05:43.537Z,2.70
2018-04-14T13:08:11.867Z,1.50
2018-04-14T13:10:40.790Z,1.30
2018-04-14T13:13:09.141Z,1.30
2018-04-14T13:15:37.521Z,1.13
2018-04-14T13:18:06.847Z,5.33
2018-04-14T13:20:35.217Z,5.00
2018-04-14T13:23:03.650Z,2.47
2018-04-14T13:25:31.999Z,2.60
2018-04-14T13:28:00.326Z,5.17
2018-04-14T13:30:28.679Z,3.90
2018-04-14T13:32:57.073Z,3.60
2018-04-14T13:35:25.447Z,1.60
2018-04-14T13:37:53.754Z,5.03
2018-04-14T13:40:22.111Z,8.23
2018-04-14T13:42:50.459Z,2.13
2018-04-14T13:45:18.845Z,2.87
2018-04-14T13:47:47.173Z,1.60
2018-04-14T13:50:15.647Z,1.70
2018-04-14T13:52:43.996Z,1.40
2018-04-14T13:55:12.409Z,3.65
2018-04-14T13:57:40.966Z,2.00
2018-04-14T14:00:09.292Z,1.53
2018-04-14T14:02:41.106Z,1.63
2018-04-14T14:05:09.537Z,1.30
2018-04-14T14:07:37.877Z,1.80
2018-04-14T14:10:06.194Z,1.17
2018-04-14T14:12:34.548Z,1.50
2018-04-14T14:15:02.889Z,1.37
2018-04-14T14:17:31.232Z,2.10
2018-04-14T14:19:59.557Z,1.27
2018-04-14T14:22:27.930Z,1.60
2018-04-14T14:24:56.249Z,1.17
2018-04-14T14:27:24.564Z,1.57
2018-04-14T14:29:52.886Z,3.00
2018-04-14T14:32:21.268Z,1.60
2018-04-14T14:34:49.726Z,1.70
2018-04-14T14:37:18.107Z,1.80
2018-04-14T14:39:46.451Z,1.60
2018-04-14T14:42:14.774Z,1.80
2018-04-14T14:44:43.142Z,1.50
2018-04-14T14:47:11.491Z,1.90
2018-04-14T14:49:39.821Z,1.13
2018-04-14T14:52:08.207Z,1.77
2018-04-14T14:54:36.601Z,2.20
2018-04-14T14:57:04.938Z,1.67
2018-04-14T14:59:33.295Z,3.55
2018-04-14T15:02:01.609Z,3.10
2018-04-14T15:04:29.951Z,2.30
2018-04-14T15:06:58.288Z,1.40
2018-04-14T15:09:26.608Z,1.97
2018-04-14T15:11:54.938Z,1.30
2018-04-14T15:14:23.606Z,1.33
2018-04-14T15:16:52.018Z,1.63
2018-04-14T15:19:20.411Z,1.67
2018-04-14T15:21:48.805Z,1.30
2018-04-14T15:24:17.134Z,1.60
2018-04-14T15:26:45.606Z,1.33
2018-04-14T15:29:13.931Z,1.90
2018-04-14T15:31:42.275Z,1.47
2018-04-14T15:34:10.607Z,1.70
2018-04-14T15:36:39.051Z,1.50
2018-04-14T15:39:07.389Z,1.80
2018-04-14T15:41:35.738Z,1.67
2018-04-14T15:44:04.093Z,2.97
2018-04-14T15:46:32.406Z,5.00
2018-04-14T15:49:00.746Z,1.70
2018-04-14T15:51:29.107Z,3.33
2018-04-14T15:53:57.538Z,1.90
2018-04-14T15:56:25.870Z,1.67
2018-04-14T15:58:54.200Z,2.70
2018-04-14T16:01:22.627Z,1.20
2018-04-14T16:03:51.065Z,1.33
2018-04-14T16:06:19.432Z,1.67
2018-04-14T16:08:47.845Z,3.90
2018-04-14T16:11:16.237Z,6.23
2018-04-14T16:13:44.710Z,1.50
2018-04-14T16:16:13.089Z,1.13
2018-04-14T16:18:41.419Z,1.50
2018-04-14T16:21:09.770Z,1.20
2018-04-14T16:23:38.281Z,1.37
2018-04-14T16:26:06.572Z,2.13
2018-04-14T16:28:34.913Z,1.70
2018-04-14T16:31:03.245Z,1.67
2018-04-14T16:33:31.565Z,1.47
2018-04-14T16:36:00.340Z,1.23
2018-04-14T16:38:28.758Z,1.27
2018-04-14T16:40:57.088Z,1.40
2018-04-14T16:43:25.417Z,1.40
2018-04-14T16:45:53.727Z,1.67
2018-04-14T16:48:22.223Z,1.40
2018-04-14T16:50:50.527Z,1.97
2018-04-14T16:53:19.210Z,1.90
2018-04-14T16:55:47.599Z,1.67
2018-04-14T16:58:15.908Z,2.00
2018-04-14T17:00:44.295Z,2.30
2018-04-14T17:03:12.744Z,2.00
2018-04-14T17:05:41.077Z,1.80
2018-04-14T17:08:09.717Z,2.40
2018-04-14T17:10:39.943Z,2.50
2018-04-14T17:13:08.269Z,2.03
2018-04-14T17:15:36.755Z,1.97
2018-04-14T17:18:05.097Z,1.70
2018-04-14T17:20:33.439Z,2.10
2018-04-14T17:23:01.842Z,1.93
2018-04-14T17:25:30.204Z,1.70
2018-04-14T17:27:58.530Z,1.30
2018-04-14T17:30:26.914Z,1.90
2018-04-14T17:32:55.269Z,2.10
2018-04-14T17:35:23.660Z,2.53
2018-04-14T17:37:52.001Z,3.53
2018-04-14T17:40:20.424Z,3.20
2018-04-14T17:42:48.775Z,4.40
2018-04-14T17:45:17.090Z,4.27
2018-04-14T17:47:45.523Z,4.13
2018-04-14T17:50:13.828Z,4.60
2018-04-14T17:52:42.168Z,5.70
2018-04-14T17:55:10.515Z,5.97
2018-04-14T17:57:38.875Z,6.17
2018-04-14T18:00:07.187Z,8.27
2018-04-14T18:02:35.566Z,6.67
2018-04-14T18:05:03.854Z,5.93
2018-04-14T18:07:32.241Z,4.33
2018-04-14T18:10:00.652Z,4.63
2018-04-14T18:12:29.291Z,3.80
2018-04-14T18:14:57.613Z,5.20
2018-04-14T18:17:25.968Z,6.37
2018-04-14T18:19:54.378Z,6.33
2018-04-14T18:22:22.729Z,7.83
2018-04-14T18:24:51.326Z,10.27
2018-04-14T18:27:19.671Z,10.63
2018-04-14T18:29:48.055Z,11.50
2018-04-14T18:32:16.433Z,14.53
2018-04-14T18:34:44.788Z,11.77
2018-04-14T18:37:13.344Z,15.80
2018-04-14T18:39:41.669Z,16.47
2018-04-14T18:42:10.009Z,24.40
2018-04-14T18:44:38.368Z,24.23
2018-04-14T18:47:06.699Z,20.30
2018-04-14T18:49:35.049Z,21.77
2018-04-14T18:52:03.489Z,19.67
2018-04-14T18:54:31.855Z,17.63
2018-04-14T18:57:00.331Z,17.10
2018-04-14T18:59:28.698Z,16.30
2018-04-14T19:01:57.052Z,15.03
2018-04-14T19:04:25.450Z,15.10
2018-04-14T19:06:53.874Z,13.97
2018-04-14T19:09:22.842Z,14.50
2018-04-14T19:11:51.260Z,13.23
2018-04-14T19:14:19.611Z,14.40
2018-04-14T19:16:48.018Z,14.37
2018-04-14T19:19:16.358Z,18.43
2018-04-14T19:21:44.823Z,18.80
2018-04-14T19:24:13.242Z,16.33
2018-04-14T19:26:41.597Z,15.77
2018-04-14T19:29:09.944Z,13.40
2018-04-14T19:31:38.312Z,12.97
2018-04-14T19:34:06.759Z,13.60
2018-04-14T19:36:35.207Z,13.33
2018-04-14T19:39:03.569Z,11.80
2018-04-14T19:41:31.959Z,13.47
2018-04-14T19:44:00.313Z,18.47
2018-04-14T19:46:28.723Z,18.80
2018-04-14T19:48:57.056Z,20.23
2018-04-14T19:51:25.437Z,20.07
2018-04-14T19:53:53.789Z,18.43
2018-04-14T19:56:22.169Z,19.33
2018-04-14T19:58:50.469Z,16.40
2018-04-14T20:01:18.109Z,16.17
2018-04-14T20:03:46.259Z,14.90
2018-04-14T20:06:14.581Z,14.83
2018-04-14T20:08:42.954Z,15.20
2018-04-14T20:11:11.283Z,15.23
2018-04-14T20:13:39.649Z,17.47
2018-04-14T20:16:08.104Z,16.87
2018-04-14T20:18:36.451Z,17.93
2018-04-14T20:21:04.810Z,16.53
2018-04-14T20:23:33.184Z,15.50
2018-04-14T20:26:01.558Z,15.30
2018-04-14T20:28:30.770Z,13.53
2018-04-14T20:30:59.162Z,14.37
2018-04-14T20:33:27.508Z,14.30
2018-04-14T20:35:55.842Z,14.87
2018-04-14T20:38:24.199Z,13.67
2018-04-14T20:40:52.524Z,13.97
2018-04-14T20:43:20.978Z,13.33
2018-04-14T20:45:49.329Z,12.00
2018-04-14T20:48:17.730Z,11.47
2018-04-14T20:50:46.065Z,11.37
2018-04-14T20:53:14.450Z,10.80
2018-04-14T20:55:42.781Z,10.97
2018-04-14T20:58:11.220Z,10.33
2018-04-14T21:00:39.555Z,10.13
2018-04-14T21:03:07.940Z,8.93
2018-04-14T21:05:36.293Z,8.20
2018-04-14T21:08:04.619Z,9.03
2018-04-14T21:10:32.962Z,8.63
2018-04-14T21:13:01.296Z,9.90
2018-04-14T21:15:29.686Z,8.97
2018-04-14T21:17:58.041Z,9.50
2018-04-14T21:20:26.411Z,8.77
2018-04-14T21:22:55.153Z,8.73
2018-04-14T21:25:23.485Z,9.93
2018-04-14T21:27:51.825Z,10.20
2018-04-14T21:30:20.207Z,9.50
2018-04-14T21:32:48.592Z,11.23
2018-04-14T21:35:16.936Z,11.63
2018-04-14T21:37:45.272Z,11.43
2018-04-14T21:40:13.660Z,10.57
2018-04-14T21:42:42.202Z,11.83
2018-04-14T21:45:10.606Z,11.33
2018-04-14T21:47:38.946Z,11.13
2018-04-14T21:50:07.322Z,10.60
2018-04-14T21:52:35.721Z,8.93
2018-04-14T21:55:04.109Z,8.57
2018-04-14T21:57:32.452Z,8.97
2018-04-14T22:00:00.794Z,9.07
2018-04-14T22:02:29.143Z,8.03
2018-04-14T22:04:57.447Z,8.20
2018-04-14T22:07:25.767Z,8.53
2018-04-14T22:09:54.167Z,8.47
2018-04-14T22:12:22.495Z,7.60
2018-04-14T22:14:50.803Z,8.10
2018-04-14T22:17:19.190Z,8.87
2018-04-14T22:19:47.528Z,9.20
2018-04-14T22:22:15.955Z,10.20
2018-04-14T22:24:44.267Z,11.13
2018-04-14T22:27:12.659Z,14.07
2018-04-14T22:29:40.995Z,11.63
2018-04-14T22:32:09.412Z,13.03
2018-04-14T22:34:37.733Z,13.77
2018-04-14T22:37:06.114Z,13.40
2018-04-14T22:39:34.449Z,13.17
2018-04-14T22:42:02.824Z,13.80
2018-04-14T22:44:31.234Z,14.17
2018-04-14T22:46:59.672Z,13.10
2018-04-14T22:49:28.012Z,16.20
2018-04-14T22:51:56.456Z,14.80
2018-04-14T22:54:24.753Z,15.37
2018-04-14T22:56:53.104Z,13.23
2018-04-14T22:59:21.502Z,13.50
2018-04-14T23:01:49.821Z,12.90
2018-04-14T23:04:18.198Z,14.17
2018-04-14T23:06:46.580Z,14.40
2018-04-14T23:09:14.927Z,13.37
2018-04-14T23:11:43.265Z,12.77
2018-04-14T23:14:11.620Z,12.60
2018-04-14T23:16:40.066Z,13.20
2018-04-14T23:19:08.399Z,12.07
2018-04-14T23:21:36.741Z,13.03
2018-04-14T23:24:05.079Z,13.37
2018-04-14T23:26:33.516Z,15.00
2018-04-14T23:29:01.879Z,13.47
2018-04-14T23:31:30.346Z,12.80
2018-04-14T23:33:58.670Z,12.37
2018-04-14T23:36:27.015Z,14.33
2018-04-14T23:38:55.349Z,12.60
2018-04-14T23:41:23.716Z,13.37
2018-04-14T23:43:52.042Z,12.77
2018-04-14T23:46:20.387Z,13.07
2018-04-14T23:48:49.093Z,13.60
2018-04-14T23:51:17.422Z,11.63
2018-04-14T23:53:45.770Z,13.10
2018-04-14T23:56:14.106Z,12.97
2018-04-14T23:58:42.508Z,13.30
